SWR4566 EDDF-LSZH
Flight info
| Callsign | SWR4566 |
|---|---|
| Flight time | N/A |
| Altitude | 23000 |
| Route | ANEKI2L/18 ANEKI Y163 NEKLO Y171 INKAM T725 LAMGO T721 RILAX |
| Aircraft | A20N/M-SDE2E3FGHIRWXY/LB1 |
Departure
| Time | 2026-05-05 18:56 |
|---|---|
| Airport | Frankfurt Main Airport (EDDF) |
Arrival
| Time | N/A |
|---|---|
| Airport | Zürich Airport (LSZH) |
| Time | Latitude | Longitude | Altitude | Speed | Heading |
|---|---|---|---|---|---|
| 2026-05-05 18:33 | 50.04463 | 8.56424 | 351 ft | 0 kts | 155° |
| 2026-05-05 18:42 | 50.04467 | 8.56421 | 351 ft | 4 kts | 156° |
| 2026-05-05 18:42 | 50.04501 | 8.56407 | 359 ft | 3 kts | 182° |
| 2026-05-05 18:42 | 50.04514 | 8.56417 | 353 ft | 0 kts | 231° |
| 2026-05-05 18:43 | 50.04501 | 8.56382 | 358 ft | 15 kts | 243° |
| 2026-05-05 18:44 | 50.04492 | 8.56295 | 354 ft | 10 kts | 256° |
| 2026-05-05 18:44 | 50.04471 | 8.56197 | 356 ft | 12 kts | 249° |
| 2026-05-05 18:44 | 50.04452 | 8.56120 | 358 ft | 5 kts | 249° |
| 2026-05-05 18:44 | 50.04423 | 8.56045 | 359 ft | 9 kts | 218° |
| 2026-05-05 18:45 | 50.04356 | 8.56051 | 352 ft | 8 kts | 163° |
| 2026-05-05 18:45 | 50.04350 | 8.56054 | 355 ft | 0 kts | 161° |
| 2026-05-05 18:45 | 50.04321 | 8.56067 | 350 ft | 9 kts | 169° |
| 2026-05-05 18:46 | 50.04259 | 8.56019 | 357 ft | 11 kts | 250° |
| 2026-05-05 18:46 | 50.04227 | 8.55883 | 355 ft | 16 kts | 250° |
| 2026-05-05 18:46 | 50.04208 | 8.55801 | 356 ft | 18 kts | 250° |
| 2026-05-05 18:46 | 50.04164 | 8.55610 | 363 ft | 20 kts | 250° |
| 2026-05-05 18:47 | 50.04142 | 8.55527 | 361 ft | 3 kts | 248° |
| 2026-05-05 18:47 | 50.04139 | 8.55516 | 360 ft | 0 kts | 248° |
| 2026-05-05 18:47 | 50.04136 | 8.55503 | 358 ft | 4 kts | 248° |
| 2026-05-05 18:48 | 50.04125 | 8.55462 | 356 ft | 8 kts | 249° |
| 2026-05-05 18:48 | 50.04100 | 8.55359 | 358 ft | 12 kts | 250° |
| 2026-05-05 18:48 | 50.04067 | 8.55222 | 362 ft | 15 kts | 249° |
| 2026-05-05 18:48 | 50.04024 | 8.55039 | 367 ft | 20 kts | 252° |
| 2026-05-05 18:49 | 50.03969 | 8.54815 | 363 ft | 25 kts | 248° |
| 2026-05-05 18:49 | 50.03903 | 8.54539 | 361 ft | 29 kts | 249° |
| 2026-05-05 18:49 | 50.03811 | 8.54257 | 362 ft | 29 kts | 239° |
| 2026-05-05 18:49 | 50.03738 | 8.53967 | 362 ft | 30 kts | 249° |
| 2026-05-05 18:50 | 50.03663 | 8.53651 | 360 ft | 32 kts | 250° |
| 2026-05-05 18:50 | 50.03589 | 8.53348 | 364 ft | 24 kts | 249° |
| 2026-05-05 18:50 | 50.03526 | 8.53090 | 367 ft | 27 kts | 249° |
| 2026-05-05 18:50 | 50.03477 | 8.52892 | 372 ft | 0 kts | 248° |
| 2026-05-05 18:51 | 50.03476 | 8.52889 | 372 ft | 4 kts | 248° |
| 2026-05-05 18:51 | 50.03469 | 8.52860 | 374 ft | 0 kts | 248° |
| 2026-05-05 18:53 | 50.03452 | 8.52798 | 377 ft | 12 kts | 247° |
| 2026-05-05 18:53 | 50.03449 | 8.52789 | 377 ft | 0 kts | 247° |
| 2026-05-05 18:53 | 50.03448 | 8.52785 | 378 ft | 1 kts | 247° |
| 2026-05-05 18:54 | 50.03443 | 8.52765 | 378 ft | 0 kts | 246° |
| 2026-05-05 18:54 | 50.03442 | 8.52761 | 378 ft | 1 kts | 246° |
| 2026-05-05 18:54 | 50.03439 | 8.52751 | 379 ft | 0 kts | 246° |
| 2026-05-05 18:54 | 50.03423 | 8.52695 | 379 ft | 13 kts | 246° |
| 2026-05-05 18:55 | 50.03342 | 8.52599 | 376 ft | 9 kts | 175° |
| 2026-05-05 18:55 | 50.03339 | 8.52599 | 376 ft | 0 kts | 176° |
| 2026-05-05 18:55 | 50.03237 | 8.52604 | 372 ft | 62 kts | 179° |
| 2026-05-05 18:56 | 50.02421 | 8.52601 | 456 ft | 156 kts | 180° |
| 2026-05-05 18:56 | 50.01325 | 8.52623 | 1458 ft | 164 kts | 181° |
| 2026-05-05 18:56 | 50.00140 | 8.52678 | 2597 ft | 180 kts | 180° |
| 2026-05-05 18:56 | 49.98753 | 8.52768 | 3308 ft | 222 kts | 180° |
| 2026-05-05 18:57 | 49.97049 | 8.52886 | 3642 ft | 266 kts | 179° |
| 2026-05-05 18:57 | 49.95084 | 8.53026 | 3896 ft | 293 kts | 179° |
| 2026-05-05 18:57 | 49.92974 | 8.53178 | 3934 ft | 318 kts | 179° |
| 2026-05-05 18:57 | 49.90684 | 8.53338 | 3841 ft | 336 kts | 179° |
| 2026-05-05 18:58 | 49.88315 | 8.53502 | 3832 ft | 342 kts | 179° |
| 2026-05-05 18:58 | 49.85949 | 8.53662 | 3843 ft | 340 kts | 179° |
| 2026-05-05 18:58 | 49.83577 | 8.53818 | 3840 ft | 339 kts | 179° |
| 2026-05-05 18:58 | 49.81585 | 8.53948 | 3838 ft | 339 kts | 179° |
| 2026-05-05 18:59 | 49.79229 | 8.54100 | 3872 ft | 337 kts | 179° |
| 2026-05-05 18:59 | 49.76974 | 8.54022 | 4438 ft | 320 kts | 186° |
| 2026-05-05 18:59 | 49.74823 | 8.53721 | 5262 ft | 304 kts | 187° |
| 2026-05-05 18:59 | 49.72769 | 8.53447 | 6230 ft | 289 kts | 187° |
| 2026-05-05 19:00 | 49.70433 | 8.53139 | 7544 ft | 270 kts | 187° |
| 2026-05-05 19:00 | 49.68617 | 8.52900 | 8799 ft | 254 kts | 187° |
| 2026-05-05 19:00 | 49.66907 | 8.52675 | 10096 ft | 238 kts | 187° |
| 2026-05-05 19:00 | 49.65300 | 8.52462 | 11249 ft | 229 kts | 187° |
| 2026-05-05 19:01 | 49.63681 | 8.52241 | 12002 ft | 239 kts | 187° |
| 2026-05-05 19:01 | 49.61955 | 8.52004 | 12442 ft | 259 kts | 187° |
| 2026-05-05 19:01 | 49.60082 | 8.51751 | 12688 ft | 280 kts | 187° |
| 2026-05-05 19:01 | 49.58069 | 8.51483 | 12821 ft | 299 kts | 186° |
| 2026-05-05 19:02 | 49.55935 | 8.51202 | 12837 ft | 316 kts | 186° |
| 2026-05-05 19:02 | 49.54463 | 8.51010 | 12836 ft | 325 kts | 186° |
| 2026-05-05 19:02 | 49.52178 | 8.50712 | 12836 ft | 334 kts | 186° |
| 2026-05-05 19:02 | 49.49061 | 8.50306 | 12836 ft | 342 kts | 186° |